createdAt,value
2018-07-07T00:00:47.131Z,9.74
2018-07-07T00:06:42.139Z,8.41
2018-07-07T00:12:37.155Z,10.47
2018-07-07T00:18:32.138Z,9.06
2018-07-07T00:24:27.155Z,7.6
2018-07-07T00:30:22.157Z,8.15
2018-07-07T00:36:17.149Z,7.81
2018-07-07T00:42:12.245Z,8.52
2018-07-07T00:48:07.169Z,8.84
2018-07-07T00:54:02.211Z,8.26
2018-07-07T00:59:57.149Z,9.15
2018-07-07T01:05:52.212Z,8.27
2018-07-07T01:11:47.179Z,8.68
2018-07-07T01:17:42.231Z,8.93
2018-07-07T01:23:37.197Z,8.13
2018-07-07T01:29:32.190Z,8.14
2018-07-07T01:35:27.270Z,8.41
2018-07-07T01:41:22.227Z,9.25
2018-07-07T01:47:17.232Z,8.17
2018-07-07T01:53:12.285Z,8.14
2018-07-07T01:59:07.225Z,7.94
2018-07-07T02:05:02.199Z,7.65
2018-07-07T02:10:57.203Z,7.56
2018-07-07T02:16:52.234Z,7.5
2018-07-07T02:22:47.256Z,7.45
2018-07-07T02:28:42.225Z,8.49
2018-07-07T02:34:37.263Z,8
2018-07-07T02:40:32.314Z,8.61
2018-07-07T02:46:27.362Z,7
2018-07-07T02:52:22.265Z,7.5
2018-07-07T02:58:17.250Z,8.06
2018-07-07T03:04:12.223Z,8.71
2018-07-07T03:10:07.256Z,8.19
2018-07-07T03:16:02.421Z,7.77
2018-07-07T03:21:57.268Z,8.19
2018-07-07T03:27:52.272Z,7.38
2018-07-07T03:33:47.267Z,8.15
2018-07-07T03:39:42.266Z,7.43
2018-07-07T03:45:37.264Z,7.35
2018-07-07T03:51:32.407Z,6.84
2018-07-07T03:57:27.280Z,7.63
2018-07-07T04:03:22.268Z,7.28
2018-07-07T04:09:17.298Z,7.63
2018-07-07T04:15:12.269Z,8.2
2018-07-07T04:21:07.271Z,7.96
2018-07-07T04:27:02.359Z,7.94
2018-07-07T04:32:57.305Z,12.87
2018-07-07T04:38:52.299Z,12.27
2018-07-07T04:44:47.339Z,12.61
2018-07-07T04:50:42.320Z,9.27
2018-07-07T04:56:37.389Z,7.96
2018-07-07T05:02:32.353Z,8.43
2018-07-07T05:08:27.378Z,7.77
2018-07-07T05:14:22.470Z,7.83
2018-07-07T05:20:17.327Z,8.44
2018-07-07T05:26:12.313Z,9.71
2018-07-07T05:32:07.400Z,9.28
2018-07-07T05:38:02.369Z,9.77
2018-07-07T05:43:57.372Z,8.87
2018-07-07T05:49:52.374Z,10.09
2018-07-07T05:55:47.417Z,10.61
2018-07-07T06:01:42.341Z,11.56
2018-07-07T06:07:37.421Z,10.66
2018-07-07T06:13:32.357Z,11.77
2018-07-07T06:19:27.448Z,11.35
2018-07-07T06:25:22.405Z,10.49
2018-07-07T06:31:17.385Z,12.45
2018-07-07T06:37:12.432Z,10.68
2018-07-07T06:43:07.352Z,13.08
2018-07-07T06:49:02.375Z,11.86
2018-07-07T06:54:57.393Z,11.69
2018-07-07T07:00:52.382Z,11.77
2018-07-07T07:06:47.396Z,11.06
2018-07-07T07:12:42.386Z,10.76
2018-07-07T07:18:37.451Z,11.25
2018-07-07T07:24:32.415Z,11.81
2018-07-07T07:30:27.426Z,10.82
2018-07-07T07:36:22.449Z,10.73
2018-07-07T07:42:17.402Z,10.59
2018-07-07T07:48:12.403Z,11.57
2018-07-07T07:54:07.410Z,11.27
2018-07-07T08:00:02.433Z,9.45
2018-07-07T08:05:57.459Z,9.15
2018-07-07T08:11:52.435Z,10.14
2018-07-07T08:17:47.439Z,9.77
2018-07-07T08:23:42.450Z,10.02
2018-07-07T08:29:37.468Z,8.85
2018-07-07T08:35:32.468Z,8.3
2018-07-07T08:41:27.467Z,8.35
2018-07-07T08:47:22.514Z,8.52
2018-07-07T08:53:17.480Z,8.42
2018-07-07T08:59:12.434Z,7.55
2018-07-07T09:05:07.563Z,7.03
2018-07-07T09:11:02.469Z,6.71
2018-07-07T09:16:57.459Z,5.87
2018-07-07T09:22:52.485Z,5.4
2018-07-07T09:28:47.461Z,5.9
2018-07-07T09:34:42.560Z,4.92
2018-07-07T09:40:37.594Z,5.76
2018-07-07T09:46:32.483Z,5.13
2018-07-07T09:52:27.500Z,6.04
2018-07-07T09:58:22.491Z,5.67
2018-07-07T10:04:17.483Z,5.55
2018-07-07T10:10:12.630Z,5.08
2018-07-07T10:16:07.495Z,5.36
2018-07-07T10:22:02.577Z,5.05
2018-07-07T10:27:57.524Z,4.97
2018-07-07T10:33:52.554Z,4.72
2018-07-07T10:39:47.497Z,4.92
2018-07-07T10:45:42.617Z,4.6
2018-07-07T10:51:37.503Z,4.13
2018-07-07T10:57:32.580Z,3.64
2018-07-07T11:03:27.526Z,3.36
2018-07-07T11:09:22.535Z,2.83
2018-07-07T11:15:17.577Z,2.73
2018-07-07T11:21:12.618Z,2.61
2018-07-07T11:27:07.537Z,2.83
2018-07-07T11:33:02.583Z,2.42
2018-07-07T11:38:57.556Z,2.61
2018-07-07T11:44:52.550Z,1.88
2018-07-07T11:50:47.571Z,1.66
2018-07-07T11:56:42.538Z,1.7
2018-07-07T12:02:37.589Z,1.62
2018-07-07T12:08:32.670Z,1.43
2018-07-07T12:14:27.622Z,1.34
2018-07-07T12:20:22.568Z,1.22
2018-07-07T12:26:17.620Z,1.3
2018-07-07T12:32:12.596Z,1.36
2018-07-07T12:38:07.591Z,1.68
2018-07-07T12:44:02.590Z,3.1
2018-07-07T12:49:57.643Z,3.28
2018-07-07T12:55:52.638Z,3.54
2018-07-07T13:01:47.589Z,2.74
2018-07-07T13:07:42.662Z,1.86
2018-07-07T13:13:37.670Z,1.69
2018-07-07T13:19:32.607Z,2.07
2018-07-07T13:25:27.614Z,4.49
2018-07-07T13:31:22.633Z,1.95
2018-07-07T13:37:17.629Z,0.41
2018-07-07T13:43:12.615Z,0.3
2018-07-07T13:49:07.665Z,0.31
2018-07-07T13:55:02.718Z,0.3
2018-07-07T14:00:57.666Z,0.3
2018-07-07T14:06:52.732Z,0.3
2018-07-07T14:12:47.667Z,0.3
2018-07-07T14:18:42.710Z,0.3
2018-07-07T14:24:37.660Z,0.3
2018-07-07T14:30:32.670Z,0.3
2018-07-07T14:36:27.653Z,0.3
2018-07-07T14:42:22.682Z,0.3
2018-07-07T14:48:17.699Z,0.3
2018-07-07T14:54:12.657Z,0.3
2018-07-07T15:00:07.708Z,0.3
2018-07-07T15:06:02.719Z,0.3
2018-07-07T15:11:57.711Z,0.3
2018-07-07T15:17:52.715Z,0.3
2018-07-07T15:23:47.710Z,0.3
2018-07-07T15:29:42.680Z,4.01
2018-07-07T15:35:37.685Z,4
2018-07-07T15:41:32.699Z,4.19
2018-07-07T15:47:27.736Z,4.22
2018-07-07T15:53:22.705Z,4.23
2018-07-07T15:59:17.688Z,3.92
2018-07-07T16:05:12.776Z,3.37
2018-07-07T16:11:07.717Z,3.21
2018-07-07T16:17:02.742Z,3.34
2018-07-07T16:22:57.713Z,2.98
2018-07-07T16:28:52.710Z,3.02
2018-07-07T16:34:47.812Z,3.33
2018-07-07T16:40:42.742Z,3.31
2018-07-07T16:46:37.730Z,3.31
2018-07-07T16:52:32.728Z,3.82
2018-07-07T16:58:27.843Z,3.12
2018-07-07T17:04:22.771Z,2.73
2018-07-07T17:10:17.780Z,3.1
2018-07-07T17:16:12.748Z,3.37
2018-07-07T17:22:07.791Z,3.12
2018-07-07T17:28:02.783Z,3.53
2018-07-07T17:33:57.780Z,2.97
2018-07-07T17:39:52.762Z,3.56
2018-07-07T17:45:47.766Z,3.96
2018-07-07T17:51:42.803Z,3.71
2018-07-07T17:57:37.832Z,3.8
2018-07-07T18:03:32.842Z,3.78
2018-07-07T18:09:27.844Z,3.84
2018-07-07T18:15:22.822Z,4.28
2018-07-07T18:21:17.841Z,4.1
2018-07-07T18:27:12.783Z,4.36
2018-07-07T18:33:07.803Z,4.71
2018-07-07T18:39:02.824Z,5.03
2018-07-07T18:44:57.840Z,5.43
2018-07-07T18:50:52.813Z,5.34
2018-07-07T18:56:47.889Z,5.83
2018-07-07T19:02:42.842Z,5.21
2018-07-07T19:08:37.821Z,4.54
2018-07-07T19:14:32.834Z,5.54
2018-07-07T19:20:27.847Z,5.13
2018-07-07T19:26:22.840Z,4.37
2018-07-07T19:32:17.898Z,4.28
2018-07-07T19:38:12.894Z,4.11
2018-07-07T19:44:07.891Z,4.89
2018-07-07T19:50:03.025Z,4.78
2018-07-07T19:55:57.905Z,4.8
2018-07-07T20:01:52.928Z,4.84
2018-07-07T20:07:47.874Z,4.64
2018-07-07T20:13:42.848Z,4.71
2018-07-07T20:19:37.851Z,4.98
2018-07-07T20:25:32.875Z,5.37
2018-07-07T20:31:27.852Z,5.05
2018-07-07T20:37:22.865Z,5.96
2018-07-07T20:43:17.985Z,5.8
2018-07-07T20:49:12.872Z,6.3
2018-07-07T20:55:07.867Z,5.29
2018-07-07T21:01:02.878Z,5.73
2018-07-07T21:06:57.884Z,6.85
2018-07-07T21:12:52.908Z,6.9
2018-07-07T21:18:47.899Z,6.25
2018-07-07T21:24:42.873Z,6.53
2018-07-07T21:30:37.896Z,6.64
2018-07-07T21:36:32.895Z,6.87
2018-07-07T21:42:28.002Z,6.53
2018-07-07T21:48:22.921Z,6.41
2018-07-07T21:54:17.903Z,6.07
2018-07-07T22:00:12.965Z,6.77
2018-07-07T22:06:07.979Z,6.36
2018-07-07T22:12:02.988Z,6.23
2018-07-07T22:17:57.925Z,6.14
2018-07-07T22:23:52.929Z,5.58
2018-07-07T22:29:47.986Z,5.22
2018-07-07T22:35:42.965Z,4.74
2018-07-07T22:41:37.933Z,4.91
2018-07-07T22:47:32.942Z,5.21
2018-07-07T22:53:27.953Z,5.16
2018-07-07T22:59:22.941Z,5.02
2018-07-07T23:05:17.944Z,4.73
2018-07-07T23:11:12.974Z,5.09
2018-07-07T23:17:08.017Z,4.93
2018-07-07T23:23:03.003Z,4.64
2018-07-07T23:28:57.970Z,5.16
2018-07-07T23:34:52.974Z,9.14
2018-07-07T23:40:48.024Z,6.09
2018-07-07T23:46:42.985Z,5.84
2018-07-07T23:52:37.982Z,5.61
2018-07-07T23:58:32.996Z,6.24
